createdAt,value
2022-11-23T00:00:34.073Z,97.46
2022-11-23T00:01:34.077Z,97.50
2022-11-23T00:02:34.130Z,97.30
2022-11-23T00:03:41.996Z,97.40
2022-11-23T00:04:34.030Z,97.50
2022-11-23T00:05:34.017Z,97.81
2022-11-23T00:06:34.140Z,97.81
2022-11-23T00:07:34.062Z,97.50
2022-11-23T00:08:33.989Z,97.71
2022-11-23T00:09:34.223Z,97.40
2022-11-23T00:10:33.969Z,98.02
2022-11-23T00:11:33.975Z,97.50
2022-11-23T00:12:33.948Z,97.71
2022-11-23T00:13:33.937Z,97.30
2022-11-23T00:14:33.931Z,97.46
2022-11-23T00:15:33.913Z,97.50
2022-11-23T00:16:33.908Z,97.30
2022-11-23T00:17:33.903Z,97.30
2022-11-23T00:18:33.888Z,97.50
2022-11-23T00:19:34.182Z,97.71
2022-11-23T00:20:33.863Z,97.40
2022-11-23T00:21:33.849Z,97.30
2022-11-23T00:22:33.875Z,97.30
2022-11-23T00:23:33.831Z,97.19
2022-11-23T00:24:33.869Z,97.40
2022-11-23T00:25:33.808Z,97.81
2022-11-23T00:26:33.799Z,97.71
2022-11-23T00:27:33.795Z,97.61
2022-11-23T00:28:33.777Z,97.65
2022-11-23T00:29:33.988Z,98.07
2022-11-23T00:30:33.756Z,97.75
2022-11-23T00:31:33.747Z,97.19
2022-11-23T00:32:33.749Z,97.50
2022-11-23T00:33:33.728Z,97.40
2022-11-23T00:34:33.720Z,97.40
2022-11-23T00:35:33.702Z,97.09
2022-11-23T00:36:33.695Z,97.61
2022-11-23T00:37:33.689Z,97.61
2022-11-23T00:38:33.689Z,97.61
2022-11-23T00:39:33.796Z,97.40
2022-11-23T00:40:33.655Z,97.61
2022-11-23T00:41:33.642Z,97.40
2022-11-23T00:42:37.869Z,97.61
2022-11-23T00:43:33.618Z,97.50
2022-11-23T00:44:33.610Z,97.92
2022-11-23T00:45:33.600Z,97.50
2022-11-23T00:46:33.590Z,97.92
2022-11-23T00:47:33.588Z,97.71
2022-11-23T00:48:33.576Z,97.50
2022-11-23T00:49:33.778Z,97.50
2022-11-23T00:50:33.548Z,97.50
2022-11-23T00:51:33.539Z,97.71
2022-11-23T00:52:33.544Z,98.02
2022-11-23T00:53:33.519Z,98.02
2022-11-23T00:54:33.613Z,97.61
2022-11-23T00:55:33.497Z,97.81
2022-11-23T00:56:33.486Z,97.46
2022-11-23T00:57:33.482Z,97.92
2022-11-23T00:58:33.461Z,97.92
2022-11-23T00:59:33.873Z,97.81
2022-11-23T01:00:33.446Z,98.02
2022-11-23T01:01:33.446Z,97.71
2022-11-23T01:02:33.434Z,97.71
2022-11-23T01:03:33.406Z,97.61
2022-11-23T01:04:33.399Z,97.81
2022-11-23T01:05:33.387Z,97.92
2022-11-23T01:06:33.378Z,97.56
2022-11-23T01:07:33.417Z,97.81
2022-11-23T01:08:33.357Z,97.50
2022-11-23T01:09:33.559Z,97.71
2022-11-23T01:10:33.356Z,98.34
2022-11-23T01:11:33.329Z,97.50
2022-11-23T01:12:33.325Z,97.61
2022-11-23T01:13:33.302Z,97.40
2022-11-23T01:14:33.303Z,97.61
2022-11-23T01:15:33.281Z,97.61
2022-11-23T01:16:33.272Z,97.30
2022-11-23T01:17:33.276Z,97.71
2022-11-23T01:18:33.249Z,97.50
2022-11-23T01:19:33.687Z,97.50
2022-11-23T01:20:33.231Z,97.30
2022-11-23T01:21:33.219Z,96.98
2022-11-23T01:22:33.219Z,97.09
2022-11-23T01:23:33.197Z,97.50
2022-11-23T01:24:33.188Z,97.61
2022-11-23T01:25:33.198Z,97.19
2022-11-23T01:26:33.184Z,97.61
2022-11-23T01:27:33.163Z,97.30
2022-11-23T01:28:33.151Z,97.30
2022-11-23T01:29:33.588Z,97.19
2022-11-23T01:30:33.125Z,97.19
2022-11-23T01:31:33.113Z,96.94
2022-11-23T01:32:33.116Z,97.04
2022-11-23T01:33:33.092Z,97.04
2022-11-23T01:34:33.085Z,97.25
2022-11-23T01:35:33.069Z,97.25
2022-11-23T01:36:33.067Z,97.67
2022-11-23T01:37:33.056Z,97.56
2022-11-23T01:38:33.040Z,97.46
2022-11-23T01:39:33.358Z,97.67
2022-11-23T01:40:33.019Z,97.67
2022-11-23T01:41:33.013Z,97.67
2022-11-23T01:42:33.025Z,97.67
2022-11-23T01:43:32.986Z,96.89
2022-11-23T01:44:32.976Z,97.41
2022-11-23T01:45:32.964Z,96.94
2022-11-23T01:46:32.955Z,96.89
2022-11-23T01:47:32.954Z,97.00
2022-11-23T01:48:32.934Z,96.89
2022-11-23T01:49:33.347Z,97.20
2022-11-23T01:50:32.915Z,97.10
2022-11-23T01:51:32.900Z,97.04
2022-11-23T01:52:32.900Z,96.94
2022-11-23T01:53:32.879Z,97.04
2022-11-23T01:54:32.874Z,97.00
2022-11-23T01:55:32.866Z,97.04
2022-11-23T01:56:32.851Z,96.83
2022-11-23T01:57:32.845Z,96.89
2022-11-23T01:58:32.855Z,96.89
2022-11-23T01:59:33.340Z,96.73
2022-11-23T02:00:32.806Z,96.79
2022-11-23T02:01:32.875Z,96.89
2022-11-23T02:02:32.798Z,96.79
2022-11-23T02:03:32.776Z,96.79
2022-11-23T02:04:32.764Z,96.89
2022-11-23T02:05:32.757Z,96.79
2022-11-23T02:06:32.743Z,96.79
2022-11-23T02:07:32.773Z,96.95
2022-11-23T02:08:32.725Z,96.64
2022-11-23T02:09:33.226Z,96.64
2022-11-23T02:10:32.705Z,96.95
2022-11-23T02:11:32.700Z,96.95
2022-11-23T02:12:32.688Z,97.27
2022-11-23T02:13:32.670Z,96.53
2022-11-23T02:14:32.676Z,96.43
2022-11-23T02:15:32.647Z,95.91
2022-11-23T02:16:32.647Z,96.12
2022-11-23T02:17:32.639Z,96.22
2022-11-23T02:18:32.623Z,96.01
2022-11-23T02:19:33.044Z,96.01
2022-11-23T02:20:32.593Z,95.81
2022-11-23T02:21:32.585Z,96.12
2022-11-23T02:22:32.591Z,96.06
2022-11-23T02:23:32.564Z,95.85
2022-11-23T02:24:32.554Z,96.48
2022-11-23T02:25:32.544Z,95.95
2022-11-23T02:26:32.532Z,96.06
2022-11-23T02:27:32.531Z,95.85
2022-11-23T02:28:32.512Z,95.75
2022-11-23T02:29:32.955Z,95.95
2022-11-23T02:30:32.512Z,95.91
2022-11-23T02:31:32.484Z,95.91
2022-11-23T02:32:32.475Z,96.12
2022-11-23T02:33:32.458Z,96.01
2022-11-23T02:34:32.465Z,96.01
2022-11-23T02:35:32.443Z,95.81
2022-11-23T02:36:32.430Z,96.37
2022-11-23T02:37:32.425Z,96.06
2022-11-23T02:38:32.408Z,95.95
2022-11-23T02:39:32.937Z,95.91
2022-11-23T02:40:32.389Z,96.16
2022-11-23T02:41:32.376Z,96.26
2022-11-23T02:42:32.376Z,96.37
2022-11-23T02:43:32.359Z,96.58
2022-11-23T02:44:32.345Z,96.69
2022-11-23T02:45:32.332Z,96.89
2022-11-23T02:46:32.355Z,96.69
2022-11-23T02:47:32.324Z,96.79
2022-11-23T02:48:32.307Z,97.62
2022-11-23T02:49:32.547Z,97.41
2022-11-23T02:50:32.277Z,97.31
2022-11-23T02:51:32.277Z,97.41
2022-11-23T02:52:32.271Z,97.20
2022-11-23T02:53:32.254Z,97.00
2022-11-23T02:54:32.236Z,97.20
2022-11-23T02:55:32.225Z,97.20
2022-11-23T02:56:32.214Z,97.10
2022-11-23T02:57:32.220Z,97.20
2022-11-23T02:58:32.198Z,97.20
2022-11-23T02:59:32.590Z,97.00
2022-11-23T03:00:32.245Z,97.31
2022-11-23T03:01:32.163Z,97.31
2022-11-23T03:02:32.179Z,97.20
2022-11-23T03:03:32.152Z,97.31
2022-11-23T03:04:32.133Z,97.31
2022-11-23T03:05:32.123Z,97.10
2022-11-23T03:06:32.110Z,97.00
2022-11-23T03:07:32.179Z,97.41
2022-11-23T03:08:32.090Z,97.41
2022-11-23T03:09:32.391Z,97.62
2022-11-23T03:10:32.065Z,97.52
2022-11-23T03:11:32.070Z,97.41
2022-11-23T03:12:32.055Z,96.79
2022-11-23T03:13:32.046Z,96.89
2022-11-23T03:14:32.025Z,96.95
2022-11-23T03:15:32.022Z,96.64
2022-11-23T03:16:32.002Z,97.06
2022-11-23T03:17:32.006Z,97.10
2022-11-23T03:18:31.999Z,97.00
2022-11-23T03:19:32.464Z,97.31
2022-11-23T03:20:31.965Z,97.00
2022-11-23T03:21:31.953Z,96.79
2022-11-23T03:22:31.982Z,96.52
2022-11-23T03:23:31.934Z,96.83
2022-11-23T03:24:31.919Z,96.69
2022-11-23T03:25:31.912Z,96.79
2022-11-23T03:26:31.899Z,96.94
2022-11-23T03:27:31.898Z,96.73
2022-11-23T03:28:31.875Z,96.94
2022-11-23T03:29:32.146Z,97.46
2022-11-23T03:30:31.854Z,97.46
2022-11-23T03:31:31.859Z,97.14
2022-11-23T03:32:31.843Z,96.83
2022-11-23T03:33:31.829Z,97.35
2022-11-23T03:34:31.830Z,97.50
2022-11-23T03:35:31.811Z,97.30
2022-11-23T03:36:31.792Z,97.04
2022-11-23T03:37:31.795Z,97.14
2022-11-23T03:38:31.774Z,97.30
2022-11-23T03:39:31.961Z,97.40
2022-11-23T03:40:31.756Z,97.77
2022-11-23T03:41:31.744Z,97.56
2022-11-23T03:42:31.739Z,97.25
2022-11-23T03:43:31.722Z,97.92
2022-11-23T03:44:31.710Z,97.71
2022-11-23T03:45:31.697Z,97.40
2022-11-23T03:46:31.691Z,97.50
2022-11-23T03:47:31.685Z,97.19
2022-11-23T03:48:31.663Z,97.40
2022-11-23T03:49:31.963Z,97.09
2022-11-23T03:50:31.662Z,97.46
2022-11-23T03:51:31.634Z,97.67
2022-11-23T03:52:31.625Z,97.14
2022-11-23T03:53:31.627Z,97.04
2022-11-23T03:54:31.605Z,97.35
2022-11-23T03:55:31.618Z,96.94
2022-11-23T03:56:31.583Z,97.35
2022-11-23T03:57:31.570Z,97.46
2022-11-23T03:58:31.569Z,97.35
2022-11-23T03:59:31.973Z,97.25
2022-11-23T04:00:31.541Z,97.77
2022-11-23T04:01:31.587Z,97.19
2022-11-23T04:02:31.520Z,97.30
2022-11-23T04:03:31.521Z,97.19
2022-11-23T04:04:31.508Z,97.40
2022-11-23T04:05:31.486Z,97.71
2022-11-23T04:06:31.496Z,97.30
2022-11-23T04:07:31.572Z,98.02
2022-11-23T04:08:31.541Z,97.61
2022-11-23T04:09:31.842Z,97.09
2022-11-23T04:10:31.436Z,97.50
2022-11-23T04:11:31.457Z,97.81
2022-11-23T04:12:31.422Z,97.61
2022-11-23T04:13:31.413Z,97.40
2022-11-23T04:14:31.392Z,97.61
2022-11-23T04:15:31.381Z,97.75
2022-11-23T04:16:31.370Z,98.02
2022-11-23T04:17:31.361Z,97.65
2022-11-23T04:18:31.358Z,97.34
2022-11-23T04:19:31.605Z,97.55
2022-11-23T04:20:31.328Z,97.44
2022-11-23T04:21:31.321Z,97.71
2022-11-23T04:22:31.335Z,97.50
2022-11-23T04:23:31.307Z,98.18
2022-11-23T04:24:31.285Z,97.65
2022-11-23T04:25:31.276Z,97.97
2022-11-23T04:26:31.269Z,97.61
2022-11-23T04:27:31.258Z,97.61
2022-11-23T04:28:31.253Z,97.61
2022-11-23T04:29:31.534Z,97.71
2022-11-23T04:30:31.222Z,97.61
2022-11-23T04:31:31.226Z,97.71
2022-11-23T04:32:31.205Z,97.81
2022-11-23T04:33:31.202Z,97.71
2022-11-23T04:34:31.182Z,97.71
2022-11-23T04:35:31.171Z,97.61
2022-11-23T04:36:31.161Z,97.61
2022-11-23T04:37:31.154Z,97.71
2022-11-23T04:38:31.165Z,97.55
2022-11-23T04:39:31.354Z,97.65
2022-11-23T04:40:31.120Z,97.40
2022-11-23T04:41:31.111Z,97.86
2022-11-23T04:42:31.096Z,97.55
2022-11-23T04:43:31.111Z,97.65
2022-11-23T04:44:31.078Z,97.50
2022-11-23T04:45:31.070Z,97.65
2022-11-23T04:46:31.054Z,97.65
2022-11-23T04:47:31.049Z,97.13
2022-11-23T04:48:31.044Z,97.55
2022-11-23T04:49:31.255Z,97.34
2022-11-23T04:50:31.016Z,97.24
2022-11-23T04:51:31.006Z,97.44
2022-11-23T04:52:30.993Z,97.55
2022-11-23T04:53:30.993Z,97.24
2022-11-23T04:54:30.987Z,97.97
2022-11-23T04:55:30.994Z,97.75
2022-11-23T04:56:30.949Z,97.75
2022-11-23T04:57:30.942Z,97.75
2022-11-23T04:58:34.485Z,97.34
2022-11-23T04:59:31.226Z,97.65
2022-11-23T05:00:30.906Z,97.65
2022-11-23T05:01:30.952Z,97.34
2022-11-23T05:02:30.888Z,97.55
2022-11-23T05:03:30.891Z,97.40
2022-11-23T05:04:30.865Z,97.61
2022-11-23T05:05:30.856Z,98.07
2022-11-23T05:06:30.845Z,97.40
2022-11-23T05:07:30.878Z,97.81
2022-11-23T05:08:30.832Z,97.50
2022-11-23T05:09:31.258Z,97.40
2022-11-23T05:10:30.982Z,97.61
2022-11-23T05:11:30.792Z,97.61
2022-11-23T05:12:30.785Z,97.30
2022-11-23T05:13:30.787Z,97.71
2022-11-23T05:14:30.759Z,97.35
2022-11-23T05:15:30.751Z,97.50
2022-11-23T05:16:30.739Z,97.19
2022-11-23T05:17:30.732Z,97.19
2022-11-23T05:18:30.726Z,97.14
2022-11-23T05:19:31.152Z,97.30
2022-11-23T05:20:30.699Z,97.30
2022-11-23T05:21:30.688Z,97.25
2022-11-23T05:22:30.684Z,97.35
2022-11-23T05:23:30.675Z,97.40
2022-11-23T05:24:30.662Z,97.09
2022-11-23T05:25:30.645Z,96.98
2022-11-23T05:26:30.649Z,97.30
2022-11-23T05:27:30.625Z,96.98
2022-11-23T05:28:40.378Z,97.30
2022-11-23T05:29:31.844Z,97.35
2022-11-23T05:30:30.590Z,97.25
2022-11-23T05:31:30.586Z,97.35
2022-11-23T05:32:30.568Z,97.35
2022-11-23T05:33:30.567Z,97.35
2022-11-23T05:34:30.551Z,97.35
2022-11-23T05:35:30.540Z,97.04
2022-11-23T05:36:30.526Z,97.25
2022-11-23T05:37:30.524Z,97.25
2022-11-23T05:38:30.516Z,97.14
2022-11-23T05:39:31.171Z,97.46
2022-11-23T05:40:30.483Z,97.20
2022-11-23T05:41:30.476Z,97.35
2022-11-23T05:42:30.506Z,97.04
2022-11-23T05:43:30.471Z,97.25
2022-11-23T05:44:30.443Z,97.25
2022-11-23T05:45:30.442Z,97.41
2022-11-23T05:46:30.427Z,97.25
2022-11-23T05:47:30.413Z,97.25
2022-11-23T05:48:30.411Z,97.25
2022-11-23T05:49:30.855Z,97.46
2022-11-23T05:50:30.381Z,97.20
2022-11-23T05:51:30.375Z,97.31
2022-11-23T05:52:30.359Z,97.62
2022-11-23T05:53:30.360Z,97.62
2022-11-23T05:54:30.337Z,97.14
2022-11-23T05:55:30.339Z,96.69
2022-11-23T05:56:30.316Z,97.31
2022-11-23T05:57:30.312Z,96.89
2022-11-23T05:58:30.322Z,96.89
2022-11-23T05:59:30.768Z,97.00
2022-11-23T06:00:30.292Z,97.00
2022-11-23T06:01:30.285Z,96.79
2022-11-23T06:02:30.252Z,96.58
2022-11-23T06:04:40.124Z,96.16
2022-11-23T06:05:40.102Z,96.26
2022-11-23T06:06:40.090Z,95.85
2022-11-23T06:07:40.161Z,96.06
2022-11-23T06:08:40.080Z,96.26
2022-11-23T06:09:40.065Z,96.26
2022-11-23T06:10:40.051Z,96.26
2022-11-23T06:11:40.039Z,96.37
2022-11-23T06:12:40.026Z,96.06
2022-11-23T06:13:40.044Z,96.06
2022-11-23T06:14:40.008Z,96.06
2022-11-23T06:15:39.995Z,95.89
2022-11-23T06:16:39.983Z,95.79
2022-11-23T06:17:39.979Z,95.64
2022-11-23T06:18:39.972Z,95.85
2022-11-23T06:19:39.964Z,96.00
2022-11-23T06:20:39.946Z,96.11
2022-11-23T06:21:39.933Z,95.85
2022-11-23T06:22:39.963Z,96.00
2022-11-23T06:23:39.920Z,96.31
2022-11-23T06:24:39.902Z,95.68
2022-11-23T06:25:39.892Z,95.48
2022-11-23T06:26:39.902Z,96.11
2022-11-23T06:27:39.869Z,95.68
2022-11-23T06:28:39.866Z,96.52
2022-11-23T06:29:39.864Z,96.11
2022-11-23T06:30:39.836Z,96.11
2022-11-23T06:31:39.826Z,96.31
2022-11-23T06:32:39.812Z,96.00
2022-11-23T06:33:39.813Z,96.11
2022-11-23T06:34:39.792Z,96.31
2022-11-23T06:35:39.783Z,96.04
2022-11-23T06:36:39.771Z,96.25
2022-11-23T06:37:39.775Z,96.00
2022-11-23T06:38:39.758Z,96.25
2022-11-23T06:39:39.740Z,95.94
2022-11-23T06:40:39.727Z,95.83
2022-11-23T06:41:39.723Z,95.62
2022-11-23T06:42:40.366Z,95.83
2022-11-23T06:43:39.706Z,95.94
2022-11-23T06:44:39.686Z,96.25
2022-11-23T06:45:39.714Z,96.00
2022-11-23T06:46:39.669Z,96.46
2022-11-23T06:47:39.656Z,96.25
2022-11-23T06:48:39.667Z,96.42
2022-11-23T06:49:39.641Z,96.21
2022-11-23T06:50:39.621Z,96.31
2022-11-23T06:51:39.615Z,96.21
2022-11-23T06:52:39.602Z,95.79
2022-11-23T06:53:39.604Z,95.79
2022-11-23T06:54:39.578Z,95.58
2022-11-23T06:55:39.570Z,96.04
2022-11-23T06:56:39.559Z,96.31
2022-11-23T06:57:39.554Z,96.31
2022-11-23T06:58:39.560Z,95.62
2022-11-23T06:59:44.521Z,96.31
2022-11-23T07:00:40.530Z,95.42
2022-11-23T07:01:39.613Z,95.73
2022-11-23T07:02:39.496Z,95.68
2022-11-23T07:03:39.642Z,95.62
2022-11-23T07:04:39.489Z,95.31
2022-11-23T07:05:39.467Z,95.17
2022-11-23T07:06:39.451Z,95.06
2022-11-23T07:07:39.508Z,95.17
2022-11-23T07:08:39.446Z,95.06
2022-11-23T07:09:39.423Z,95.06
2022-11-23T07:10:39.408Z,94.69
2022-11-23T07:11:39.400Z,95.00
2022-11-23T07:12:39.390Z,95.10
2022-11-23T07:13:39.387Z,95.10
2022-11-23T07:14:39.375Z,95.10
2022-11-23T07:15:39.360Z,94.90
2022-11-23T07:16:39.347Z,95.21
2022-11-23T07:17:39.351Z,95.21
2022-11-23T07:18:39.333Z,95.10
2022-11-23T07:19:39.313Z,94.27
2022-11-23T07:20:39.303Z,94.23
2022-11-23T07:21:39.290Z,94.12
2022-11-23T07:22:39.288Z,94.23
2022-11-23T07:23:39.282Z,94.33
2022-11-23T07:24:43.955Z,94.23
2022-11-23T07:25:40.247Z,93.98
2022-11-23T07:26:39.257Z,93.98
2022-11-23T07:27:39.231Z,93.77
2022-11-23T07:28:39.229Z,93.46
2022-11-23T07:29:39.211Z,93.31
2022-11-23T07:30:39.198Z,92.99
2022-11-23T07:31:39.202Z,93.31
2022-11-23T07:32:39.177Z,92.72
2022-11-23T07:33:39.189Z,92.72
2022-11-23T07:34:39.159Z,92.41
2022-11-23T07:35:39.142Z,92.41
2022-11-23T07:36:39.132Z,92.37
2022-11-23T07:37:39.121Z,92.16
2022-11-23T07:38:39.125Z,92.37
2022-11-23T07:39:58.727Z,92.27
2022-11-23T07:40:40.089Z,92.12
2022-11-23T07:41:39.095Z,92.33
2022-11-23T07:42:44.637Z,91.81
2022-11-23T07:43:40.064Z,92.18
2022-11-23T07:44:39.051Z,91.66
2022-11-23T07:45:39.038Z,91.41
2022-11-23T07:46:39.026Z,90.58
2022-11-23T07:47:39.017Z,89.92
2022-11-23T07:48:39.011Z,89.92
2022-11-23T07:49:39.009Z,89.46
2022-11-23T07:50:38.982Z,89.04
2022-11-23T07:51:38.974Z,88.48
2022-11-23T07:52:38.965Z,88.34
2022-11-23T07:53:38.961Z,88.26
2022-11-23T07:54:38.940Z,85.83
2022-11-23T07:55:38.927Z,84.38
2022-11-23T07:56:38.918Z,83.80
2022-11-23T07:57:38.911Z,83.24
2022-11-23T07:58:38.903Z,82.62
2022-11-23T07:59:38.883Z,83.51
2022-11-23T08:00:38.916Z,83.16
2022-11-23T08:01:38.865Z,82.19
2022-11-23T08:02:39.154Z,81.43
2022-11-23T08:03:39.905Z,80.26
2022-11-23T08:04:38.837Z,77.94
2022-11-23T08:05:38.841Z,77.81
2022-11-23T08:06:38.836Z,78.08
2022-11-23T08:07:38.816Z,78.11
2022-11-23T08:08:38.789Z,75.67
2022-11-23T08:09:38.784Z,75.70
2022-11-23T08:10:44.184Z,75.91
2022-11-23T08:11:39.753Z,76.32
2022-11-23T08:12:38.743Z,76.64
2022-11-23T08:13:38.732Z,77.39
2022-11-23T08:14:38.731Z,77.74
2022-11-23T08:15:38.712Z,77.87
2022-11-23T08:16:38.701Z,78.02
2022-11-23T08:17:38.691Z,79.16
2022-11-23T08:18:38.679Z,79.50
2022-11-23T08:19:38.674Z,80.36
2022-11-23T08:20:38.655Z,80.30
2022-11-23T08:21:38.662Z,81.23
2022-11-23T08:22:38.635Z,81.54
2022-11-23T08:23:38.638Z,81.85
2022-11-23T08:24:38.619Z,82.31
2022-11-23T08:25:38.600Z,82.62
2022-11-23T08:26:38.592Z,83.28
2022-11-23T08:27:38.578Z,83.28
2022-11-23T08:28:38.569Z,83.48
2022-11-23T08:29:38.600Z,83.90
2022-11-23T08:30:38.546Z,84.56
2022-11-23T08:31:38.539Z,84.77
2022-11-23T08:32:38.528Z,84.46
2022-11-23T08:33:38.514Z,84.67
2022-11-23T08:34:38.517Z,85.19
2022-11-23T08:35:38.493Z,85.39
2022-11-23T08:36:38.484Z,85.19
2022-11-23T08:37:38.491Z,85.56
2022-11-23T08:38:38.462Z,85.46
2022-11-23T08:39:38.458Z,85.29
2022-11-23T08:40:38.438Z,85.39
2022-11-23T08:41:38.429Z,85.81
2022-11-23T08:42:38.417Z,85.95
2022-11-23T08:43:38.405Z,86.47
2022-11-23T08:44:38.406Z,87.34
2022-11-23T08:45:38.384Z,87.13
2022-11-23T08:46:38.382Z,87.96
2022-11-23T08:47:38.363Z,88.28
2022-11-23T08:48:38.360Z,87.76
2022-11-23T08:49:38.349Z,88.90
2022-11-23T08:50:38.331Z,88.69
2022-11-23T08:51:38.326Z,88.02
2022-11-23T08:52:38.313Z,88.59
2022-11-23T08:53:38.316Z,88.13
2022-11-23T08:54:38.306Z,88.13
2022-11-23T08:55:38.279Z,88.34
2022-11-23T08:56:38.285Z,88.71
2022-11-23T08:57:38.255Z,88.09
2022-11-23T08:58:38.245Z,88.20
2022-11-23T08:59:38.243Z,87.99
2022-11-23T09:00:38.225Z,87.88
2022-11-23T09:01:38.249Z,87.22
2022-11-23T09:02:38.203Z,87.32
2022-11-23T09:03:38.189Z,86.60
2022-11-23T09:04:38.326Z,86.80
2022-11-23T09:05:38.168Z,86.45
2022-11-23T09:06:38.167Z,86.04
2022-11-23T09:07:38.165Z,85.79
2022-11-23T09:08:38.136Z,85.34
2022-11-23T09:09:38.151Z,84.99
2022-11-23T09:10:38.131Z,84.27
2022-11-23T09:11:38.104Z,83.29
2022-11-23T09:12:38.094Z,82.74
2022-11-23T09:13:38.083Z,82.04
2022-11-23T09:14:38.079Z,80.93
2022-11-23T09:15:38.066Z,78.21
2022-11-23T09:16:38.049Z,77.31
2022-11-23T09:17:38.039Z,76.04
2022-11-23T09:18:38.028Z,75.49
2022-11-23T09:19:38.036Z,74.33
2022-11-23T09:20:38.007Z,73.50
2022-11-23T09:21:38.018Z,72.34
2022-11-23T09:22:37.992Z,71.82
2022-11-23T09:23:37.976Z,71.66
2022-11-23T09:24:38.194Z,71.62
2022-11-23T09:25:37.967Z,71.48
2022-11-23T09:26:37.941Z,70.73
2022-11-23T09:27:37.928Z,70.32
2022-11-23T09:28:41.694Z,70.56
2022-11-23T09:29:38.914Z,71.10
2022-11-23T09:30:37.896Z,71.55
2022-11-23T09:31:37.884Z,72.68
2022-11-23T09:32:37.875Z,72.51
2022-11-23T09:33:37.886Z,71.45
2022-11-23T09:34:37.865Z,70.39
2022-11-23T09:35:43.489Z,69.67
2022-11-23T09:36:38.866Z,67.79
2022-11-23T09:37:37.833Z,66.30
2022-11-23T09:38:55.750Z,65.39
2022-11-23T09:39:38.807Z,64.43
2022-11-23T09:40:37.809Z,62.74
2022-11-23T09:41:37.791Z,61.28
2022-11-23T09:42:37.767Z,61.61
2022-11-23T09:43:37.755Z,61.61
2022-11-23T09:44:37.754Z,61.79
2022-11-23T09:45:37.731Z,61.46
2022-11-23T09:46:37.751Z,59.66
2022-11-23T09:47:37.767Z,58.41
2022-11-23T09:48:37.699Z,58.98
2022-11-23T09:49:37.696Z,59.36
2022-11-23T09:50:37.678Z,59.16
2022-11-23T09:51:37.665Z,58.95
2022-11-23T09:52:37.708Z,58.44
2022-11-23T09:53:37.672Z,58.75
2022-11-23T09:54:37.691Z,58.34
2022-11-23T09:55:37.623Z,58.72
2022-11-23T09:56:37.626Z,58.23
2022-11-23T09:57:37.639Z,59.21
2022-11-23T09:58:37.591Z,59.28
2022-11-23T09:59:37.584Z,59.49
2022-11-23T10:00:37.568Z,59.16
2022-11-23T10:01:37.587Z,59.36
2022-11-23T10:02:37.546Z,59.56
2022-11-23T10:03:37.553Z,58.51
2022-11-23T10:04:37.532Z,58.11
2022-11-23T10:05:37.513Z,58.18
2022-11-23T10:06:37.503Z,58.51
2022-11-23T10:07:37.489Z,59.44
2022-11-23T10:08:37.480Z,61.08
2022-11-23T10:09:37.480Z,60.74
2022-11-23T10:10:37.458Z,59.69
2022-11-23T10:11:37.446Z,60.44
2022-11-23T10:12:40.126Z,60.85
2022-11-23T10:13:37.441Z,59.59
2022-11-23T10:14:37.426Z,59.46
2022-11-23T10:15:37.403Z,59.28
2022-11-23T10:16:37.394Z,59.39
2022-11-23T10:17:37.381Z,60.85
2022-11-23T10:18:37.401Z,61.38
2022-11-23T10:19:37.369Z,61.44
2022-11-23T10:20:37.349Z,63.13
2022-11-23T10:21:37.389Z,64.73
2022-11-23T10:22:37.329Z,66.02
2022-11-23T10:23:37.316Z,67.52
2022-11-23T10:24:37.318Z,68.88
2022-11-23T10:25:39.290Z,70.25
2022-11-23T10:26:37.288Z,70.70
2022-11-23T10:27:37.274Z,72.00
2022-11-23T10:28:37.265Z,72.75
2022-11-23T10:29:37.274Z,73.88
2022-11-23T10:30:37.318Z,74.08
2022-11-23T10:31:37.231Z,74.05
2022-11-23T10:32:37.224Z,73.78
2022-11-23T10:33:37.210Z,73.98
2022-11-23T10:34:37.205Z,74.22
2022-11-23T10:35:37.183Z,74.43
2022-11-23T10:36:37.179Z,74.63
2022-11-23T10:37:37.161Z,75.39
2022-11-23T10:38:37.152Z,75.70
2022-11-23T10:39:37.152Z,75.70
2022-11-23T10:40:37.139Z,75.94
2022-11-23T10:41:37.118Z,76.56
2022-11-23T10:42:37.110Z,77.08
2022-11-23T10:43:37.096Z,77.48
2022-11-23T10:44:37.133Z,77.08
2022-11-23T10:45:37.091Z,78.52
2022-11-23T10:46:37.065Z,78.72
2022-11-23T10:47:37.052Z,79.14
2022-11-23T10:48:37.043Z,78.31
2022-11-23T10:49:37.046Z,78.21
2022-11-23T10:53:18.035Z,78.76
2022-11-23T10:54:00.690Z,79.00
2022-11-23T10:54:57.890Z,79.72
2022-11-23T10:55:56.876Z,79.83
2022-11-23T10:56:56.863Z,79.69
2022-11-23T10:57:56.866Z,79.72
2022-11-23T10:58:56.838Z,79.31
2022-11-23T10:59:56.842Z,79.72
2022-11-23T11:00:56.843Z,80.10
2022-11-23T11:01:56.842Z,80.00
2022-11-23T11:02:56.795Z,80.00
2022-11-23T11:03:56.785Z,80.10
2022-11-23T11:04:58.685Z,80.00
2022-11-23T11:06:12.098Z,80.51
2022-11-23T11:06:57.755Z,80.62
2022-11-23T11:07:56.743Z,80.51
2022-11-23T11:08:56.730Z,81.23
2022-11-23T11:09:56.730Z,80.82
2022-11-23T11:10:56.712Z,80.93
2022-11-23T11:11:56.723Z,80.93
2022-11-23T11:12:56.710Z,81.13
2022-11-23T11:13:56.678Z,80.93
2022-11-23T11:14:59.363Z,81.34
2022-11-23T11:15:57.655Z,81.58
2022-11-23T11:16:56.661Z,81.48
2022-11-23T11:17:56.654Z,82.10
2022-11-23T11:18:56.623Z,81.79
2022-11-23T11:19:56.619Z,82.06
2022-11-23T11:20:56.600Z,82.26
2022-11-23T11:21:56.591Z,82.51
2022-11-23T11:22:56.576Z,81.89
2022-11-23T11:23:56.579Z,82.16
2022-11-23T11:24:56.602Z,81.96
2022-11-23T11:25:56.547Z,81.96
2022-11-23T11:26:56.536Z,81.85
2022-11-23T11:27:56.524Z,80.99
2022-11-23T11:28:56.511Z,81.09
2022-11-23T11:29:56.512Z,80.99
2022-11-23T11:30:56.490Z,81.20
2022-11-23T11:31:56.480Z,80.75
2022-11-23T11:32:56.489Z,80.58
2022-11-23T11:33:56.459Z,79.93
2022-11-23T11:34:56.463Z,79.96
2022-11-23T11:35:56.510Z,81.05
2022-11-23T11:36:56.429Z,80.89
2022-11-23T11:37:56.415Z,80.79
2022-11-23T11:39:17.188Z,80.16
2022-11-23T11:39:57.400Z,80.16
2022-11-23T11:40:56.382Z,80.37
2022-11-23T11:41:56.377Z,79.96
2022-11-23T11:42:56.359Z,80.47
2022-11-23T11:43:56.357Z,81.30
2022-11-23T11:44:56.344Z,81.20
2022-11-23T11:46:57.318Z,81.20
2022-11-23T11:47:56.319Z,80.79
2022-11-23T11:48:56.313Z,81.09
2022-11-23T11:49:56.294Z,81.09
2022-11-23T11:50:56.272Z,80.79
2022-11-23T11:51:56.260Z,80.99
2022-11-23T11:52:56.263Z,80.79
2022-11-23T11:53:56.238Z,80.79
2022-11-23T11:54:56.249Z,80.89
2022-11-23T11:55:56.218Z,80.89
2022-11-23T11:56:56.244Z,80.89
2022-11-23T11:57:56.286Z,80.99
2022-11-23T11:58:56.183Z,80.99
2022-11-23T11:59:56.185Z,80.89
2022-11-23T12:00:56.161Z,81.09
2022-11-23T12:01:56.152Z,81.09
2022-11-23T12:02:56.184Z,81.20
2022-11-23T12:04:50.527Z,80.89
2022-11-23T12:05:50.485Z,81.20
2022-11-23T12:06:50.504Z,81.20
2022-11-23T12:07:50.546Z,81.51
2022-11-23T12:08:50.454Z,80.79
2022-11-23T12:09:50.452Z,81.09
2022-11-23T12:10:50.433Z,80.99
2022-11-23T12:11:50.429Z,80.89
2022-11-23T12:12:50.411Z,81.05
2022-11-23T12:13:50.397Z,80.75
2022-11-23T12:14:50.401Z,81.09
2022-11-23T12:15:50.892Z,80.89
2022-11-23T12:17:04.339Z,80.95
2022-11-23T12:17:51.353Z,80.99
2022-11-23T12:18:50.349Z,80.95
2022-11-23T12:19:50.333Z,80.75
2022-11-23T12:20:50.348Z,80.79
2022-11-23T12:21:54.449Z,81.09
2022-11-23T12:22:51.345Z,81.20
2022-11-23T12:23:50.295Z,80.99
2022-11-23T12:24:50.302Z,81.51
2022-11-23T12:25:50.278Z,81.51
2022-11-23T12:26:50.260Z,81.71
2022-11-23T12:27:50.250Z,82.12
2022-11-23T12:28:50.264Z,82.12
2022-11-23T12:29:50.226Z,82.12
2022-11-23T12:30:50.233Z,81.61
2022-11-23T12:31:50.201Z,81.51
2022-11-23T12:32:50.195Z,81.47
2022-11-23T12:34:50.172Z,81.51
2022-11-23T12:35:50.169Z,81.26
2022-11-23T12:36:50.181Z,81.47
2022-11-23T12:37:50.174Z,81.37
2022-11-23T12:38:50.128Z,81.47
2022-11-23T12:39:50.115Z,81.37
2022-11-23T12:40:50.116Z,81.57
2022-11-23T12:41:50.091Z,81.05
2022-11-23T12:42:50.084Z,80.95
2022-11-23T12:43:50.105Z,80.95
2022-11-23T12:44:50.062Z,80.95
2022-11-23T12:45:50.064Z,81.16
2022-11-23T12:46:50.044Z,81.16
2022-11-23T12:47:50.029Z,81.47
2022-11-23T12:48:50.018Z,81.26
2022-11-23T12:49:50.005Z,81.37
2022-11-23T12:50:50.009Z,80.95
2022-11-23T12:51:50.000Z,80.85
2022-11-23T12:52:49.991Z,80.95
2022-11-23T12:53:50.008Z,81.16
2022-11-23T12:54:49.956Z,80.95
2022-11-23T12:55:49.948Z,80.75
2022-11-23T12:56:49.943Z,81.16
2022-11-23T12:57:49.946Z,81.20
2022-11-23T12:58:49.910Z,81.26